createdAt,value
2022-12-13T00:01:56.039Z,89.66
2022-12-13T00:04:24.909Z,89.80
2022-12-13T00:06:54.271Z,89.87
2022-12-13T00:09:22.835Z,89.95
2022-12-13T00:11:50.577Z,90.04
2022-12-13T00:14:18.606Z,90.85
2022-12-13T00:16:49.049Z,90.80
2022-12-13T00:19:19.155Z,90.67
2022-12-13T00:21:46.463Z,90.68
2022-12-13T00:24:14.762Z,90.13
2022-12-13T00:26:42.780Z,90.03
2022-12-13T00:29:11.873Z,89.69
2022-12-13T00:34:27.034Z,89.79
2022-12-13T00:36:55.216Z,90.02
2022-12-13T00:39:23.007Z,89.31
2022-12-13T00:41:50.541Z,88.82
2022-12-13T00:44:19.919Z,88.27
2022-12-13T00:46:47.461Z,88.66
2022-12-13T00:49:14.902Z,88.80
2022-12-13T00:51:42.128Z,89.30
2022-12-13T00:54:11.066Z,89.18
2022-12-13T00:56:38.609Z,89.55
2022-12-13T00:59:06.300Z,89.60
2022-12-13T01:01:36.701Z,89.55
2022-12-13T01:04:07.073Z,89.89
2022-12-13T01:06:45.962Z,89.33
2022-12-13T01:09:21.768Z,89.09
2022-12-13T01:11:50.521Z,89.62
2022-12-13T01:14:20.050Z,89.49
2022-12-13T01:16:47.477Z,89.34
2022-12-13T01:19:15.155Z,89.43
2022-12-13T01:21:42.405Z,88.85
2022-12-13T01:24:10.095Z,89.40
2022-12-13T01:26:37.439Z,89.23
2022-12-13T01:29:05.894Z,88.90
2022-12-13T01:31:33.835Z,88.42
2022-12-13T01:34:10.344Z,88.13
2022-12-13T01:36:38.690Z,88.00
2022-12-13T01:39:14.756Z,88.33
2022-12-13T01:41:45.503Z,88.25
2022-12-13T01:44:56.564Z,87.71
2022-12-13T01:47:55.139Z,87.77
2022-12-13T01:50:32.785Z,87.76
2022-12-13T01:53:01.359Z,87.69
2022-12-13T01:55:41.843Z,87.30
2022-12-13T01:58:10.162Z,87.51
2022-12-13T02:00:38.145Z,87.52
2022-12-13T02:03:09.514Z,87.42
2022-12-13T02:06:08.125Z,87.80
2022-12-13T02:08:37.104Z,87.45
2022-12-13T02:11:06.718Z,87.66
2022-12-13T02:13:33.930Z,87.82
2022-12-13T02:16:29.337Z,87.54
2022-12-13T02:19:31.741Z,87.56
2022-12-13T02:22:16.841Z,88.08
2022-12-13T02:25:10.589Z,88.13
2022-12-13T02:28:03.144Z,88.36
2022-12-13T02:31:17.754Z,88.30
2022-12-13T02:34:09.931Z,88.42
2022-12-13T02:36:58.668Z,88.06
2022-12-13T02:39:39.517Z,88.19
2022-12-13T02:42:27.899Z,88.37
2022-12-13T02:45:17.206Z,88.18
2022-12-13T02:47:52.443Z,88.12
2022-12-13T02:50:21.956Z,88.38
2022-12-13T02:52:51.486Z,88.56
2022-12-13T02:55:19.109Z,88.12
2022-12-13T02:57:46.652Z,88.64
2022-12-13T03:00:21.142Z,88.51
2022-12-13T03:03:00.624Z,88.86
2022-12-13T03:06:16.582Z,88.72
2022-12-13T03:08:58.401Z,88.79
2022-12-13T03:12:14.575Z,89.10
2022-12-13T03:15:01.612Z,89.44
2022-12-13T03:17:43.934Z,89.73
2022-12-13T03:20:22.931Z,89.48
2022-12-13T03:22:52.555Z,89.16
2022-12-13T03:25:31.505Z,89.36
2022-12-13T03:28:02.437Z,89.09
2022-12-13T03:30:33.089Z,89.19
2022-12-13T03:33:01.468Z,88.95
2022-12-13T03:35:34.122Z,89.22
2022-12-13T03:38:22.576Z,89.39
2022-12-13T03:40:55.435Z,89.33
2022-12-13T03:43:23.737Z,88.57
2022-12-13T03:45:54.383Z,88.58
2022-12-13T03:48:23.933Z,88.51
2022-12-13T03:50:54.276Z,88.53
2022-12-13T03:53:32.642Z,88.14
2022-12-13T03:56:06.990Z,88.19
2022-12-13T03:58:37.920Z,88.10
2022-12-13T04:01:09.928Z,87.59
2022-12-13T04:03:40.361Z,87.08
2022-12-13T04:06:08.638Z,87.35
2022-12-13T04:08:37.859Z,87.78
2022-12-13T04:11:25.359Z,87.20
2022-12-13T04:13:54.655Z,87.06
2022-12-13T04:16:23.752Z,87.22
2022-12-13T04:18:51.453Z,87.28
2022-12-13T04:21:18.700Z,87.03
2022-12-13T04:23:46.250Z,86.60
2022-12-13T04:26:13.710Z,86.71
2022-12-13T04:28:41.289Z,86.61
2022-12-13T04:31:08.789Z,86.03
2022-12-13T04:33:36.687Z,86.47
2022-12-13T04:36:04.526Z,86.19
2022-12-13T04:38:32.004Z,86.21
2022-12-13T04:41:13.493Z,86.25
2022-12-13T04:43:40.940Z,86.00
2022-12-13T04:46:08.641Z,86.22
2022-12-13T04:48:36.110Z,86.10
2022-12-13T04:51:03.417Z,86.35
2022-12-13T04:53:31.075Z,86.09
2022-12-13T04:55:59.701Z,85.79
2022-12-13T04:58:28.334Z,85.39
2022-12-13T05:00:55.816Z,85.18
2022-12-13T05:03:24.133Z,84.78
2022-12-13T05:05:51.453Z,84.67
2022-12-13T05:08:19.220Z,85.11
2022-12-13T05:10:46.484Z,84.22
2022-12-13T05:13:14.053Z,84.50
2022-12-13T05:15:41.287Z,84.57
2022-12-13T05:18:11.026Z,84.76
2022-12-13T05:20:39.815Z,84.77
2022-12-13T05:23:07.783Z,84.79
2022-12-13T05:25:37.188Z,85.01
2022-12-13T05:28:09.036Z,85.00
2022-12-13T05:30:53.736Z,84.73
2022-12-13T05:33:22.429Z,84.94
2022-12-13T05:35:50.017Z,85.04
2022-12-13T05:38:18.294Z,84.98
2022-12-13T05:40:45.566Z,84.96
2022-12-13T05:43:21.463Z,84.57
2022-12-13T05:45:50.737Z,85.00
2022-12-13T05:48:24.812Z,84.58
2022-12-13T05:51:09.971Z,84.64
2022-12-13T05:53:41.537Z,84.62
2022-12-13T05:56:11.662Z,85.03
2022-12-13T05:58:41.399Z,84.61
2022-12-13T06:01:13.424Z,84.75
2022-12-13T06:03:42.400Z,84.60
2022-12-13T06:06:12.643Z,84.68
2022-12-13T06:08:40.725Z,84.49
2022-12-13T06:11:09.916Z,84.43
2022-12-13T06:13:44.131Z,84.86
2022-12-13T06:16:22.237Z,84.90
2022-12-13T06:19:00.978Z,84.82
2022-12-13T06:21:43.833Z,85.08
2022-12-13T06:24:19.997Z,84.93
2022-12-13T06:26:47.444Z,85.07
2022-12-13T06:29:23.053Z,85.25
2022-12-13T06:32:02.825Z,85.13
2022-12-13T06:34:34.661Z,85.12
2022-12-13T06:37:07.184Z,84.81
2022-12-13T06:39:35.372Z,84.90
2022-12-13T06:42:06.633Z,85.04
2022-12-13T06:44:35.426Z,85.18
2022-12-13T06:47:11.352Z,85.11
2022-12-13T06:49:43.960Z,85.09
2022-12-13T06:52:13.548Z,85.04
2022-12-13T06:54:42.980Z,84.79
2022-12-13T06:57:12.216Z,84.87
2022-12-13T06:59:40.187Z,84.60
2022-12-13T07:02:24.342Z,85.01
2022-12-13T07:04:54.756Z,84.85
2022-12-13T07:07:23.320Z,84.49
2022-12-13T07:09:50.831Z,84.55
2022-12-13T07:12:19.344Z,84.16
2022-12-13T07:14:46.950Z,83.93
2022-12-13T07:17:32.407Z,83.72
2022-12-13T07:20:08.560Z,83.37
2022-12-13T07:22:44.798Z,83.42
2022-12-13T07:25:27.636Z,83.12
2022-12-13T07:28:03.001Z,82.50
2022-12-13T07:30:41.056Z,82.20
2022-12-13T07:33:09.938Z,81.33
2022-12-13T07:35:37.877Z,80.61
2022-12-13T07:38:10.886Z,80.59
2022-12-13T07:40:40.591Z,80.33
2022-12-13T07:43:09.748Z,79.86
2022-12-13T07:45:37.191Z,79.33
2022-12-13T07:48:06.415Z,78.74
2022-12-13T07:50:37.556Z,77.91
2022-12-13T07:53:08.297Z,76.27
2022-12-13T07:55:37.138Z,76.21
2022-12-13T07:58:10.283Z,75.82
2022-12-13T08:00:41.366Z,75.39
2022-12-13T08:03:24.170Z,74.96
2022-12-13T08:06:11.304Z,75.06
2022-12-13T08:08:39.614Z,74.56
2022-12-13T08:11:13.607Z,74.31
2022-12-13T08:13:41.555Z,74.24
2022-12-13T08:16:27.657Z,73.56
2022-12-13T08:19:01.951Z,72.79
2022-12-13T08:21:58.281Z,71.92
2022-12-13T08:24:30.822Z,70.63
2022-12-13T08:27:02.051Z,69.95
2022-12-13T08:29:33.967Z,68.54
2022-12-13T08:32:12.043Z,66.36
2022-12-13T08:34:42.097Z,64.00
2022-12-13T08:37:09.945Z,63.45
2022-12-13T08:39:39.716Z,63.80
2022-12-13T08:42:19.551Z,63.78
2022-12-13T08:44:50.871Z,65.08
2022-12-13T08:47:26.379Z,66.11
2022-12-13T08:50:02.336Z,66.72
2022-12-13T08:52:39.801Z,66.79
2022-12-13T08:55:14.613Z,67.92
2022-12-13T08:57:43.892Z,68.60
2022-12-13T09:00:16.155Z,68.93
2022-12-13T09:02:44.253Z,68.72
2022-12-13T09:05:13.277Z,69.00
2022-12-13T09:08:02.831Z,67.80
2022-12-13T09:10:31.072Z,67.99
2022-12-13T09:13:11.505Z,67.09
2022-12-13T09:15:45.866Z,66.57
2022-12-13T09:18:15.117Z,66.30
2022-12-13T09:20:43.032Z,65.89
2022-12-13T09:23:22.932Z,63.32
2022-12-13T09:25:56.289Z,62.06
2022-12-13T09:28:37.042Z,61.89
2022-12-13T09:31:19.243Z,59.89
2022-12-13T09:33:47.094Z,58.88
2022-12-13T09:36:19.241Z,57.95
2022-12-13T09:38:47.405Z,57.51
2022-12-13T09:42:00.985Z,58.13
2022-12-13T09:44:43.937Z,59.51
2022-12-13T09:47:34.983Z,59.76
2022-12-13T09:50:14.775Z,59.49
2022-12-13T09:52:46.215Z,60.02
2022-12-13T09:55:25.624Z,60.90
2022-12-13T09:57:53.403Z,62.23
2022-12-13T10:00:25.943Z,62.10
2022-12-13T10:02:58.954Z,61.09
2022-12-13T10:05:39.565Z,61.20
2022-12-13T10:08:16.729Z,60.52
2022-12-13T10:10:45.446Z,60.73
2022-12-13T10:13:28.175Z,61.32
2022-12-13T10:16:04.783Z,61.33
2022-12-13T10:18:38.668Z,60.98
2022-12-13T10:21:40.597Z,60.91
2022-12-13T10:24:32.864Z,62.21
2022-12-13T10:27:17.797Z,62.43
2022-12-13T10:30:12.807Z,63.78
2022-12-13T10:33:06.169Z,63.34
2022-12-13T10:35:36.865Z,64.00
2022-12-13T10:38:32.008Z,63.01
2022-12-13T10:41:00.953Z,61.61
2022-12-13T10:43:32.976Z,60.11
2022-12-13T10:46:02.202Z,58.89
2022-12-13T10:48:50.644Z,58.57
2022-12-13T10:51:22.281Z,58.76
2022-12-13T10:54:00.813Z,59.02
2022-12-13T10:56:47.754Z,57.82
2022-12-13T10:59:18.224Z,57.25
2022-12-13T11:01:45.547Z,55.71
2022-12-13T11:04:29.726Z,54.00
2022-12-13T11:07:00.528Z,54.23
2022-12-13T11:09:38.642Z,54.76
2022-12-13T11:12:17.956Z,55.41
2022-12-13T11:15:01.939Z,54.78
2022-12-13T11:17:34.659Z,53.45
2022-12-13T11:20:30.188Z,53.67
2022-12-13T11:23:39.373Z,53.92
2022-12-13T11:26:14.816Z,54.83
2022-12-13T11:29:20.230Z,56.05
2022-12-13T11:32:12.761Z,57.19
2022-12-13T11:35:16.540Z,58.05
2022-12-13T11:38:30.575Z,57.73
2022-12-13T11:41:11.413Z,58.10
2022-12-13T11:44:04.155Z,58.26
2022-12-13T11:46:55.980Z,58.28
2022-12-13T11:49:38.816Z,58.42
2022-12-13T11:52:18.224Z,59.18
2022-12-13T11:54:57.489Z,59.74
2022-12-13T11:57:44.720Z,59.85
2022-12-13T12:00:44.480Z,60.26
2022-12-13T12:03:40.068Z,60.36
2022-12-13T12:06:21.582Z,61.11
2022-12-13T12:08:58.913Z,60.64
2022-12-13T12:12:16.556Z,60.75
2022-12-13T12:15:17.257Z,60.92
2022-12-13T12:17:45.358Z,60.15
2022-12-13T12:20:23.909Z,61.18
2022-12-13T12:23:25.686Z,61.45
2022-12-13T12:26:09.002Z,62.49
2022-12-13T12:29:39.794Z,62.32
2022-12-13T12:32:19.278Z,62.86
2022-12-13T12:35:55.221Z,64.16
2022-12-13T12:38:44.425Z,64.97
2022-12-13T12:41:45.236Z,67.60
2022-12-13T12:44:39.849Z,69.32
2022-12-13T12:48:46.292Z,69.53
2022-12-13T12:50:37.310Z,68.91
2022-12-13T12:53:31.723Z,68.67
2022-12-13T12:56:39.403Z,67.82
2022-12-13T12:59:27.743Z,67.48
2022-12-13T13:02:14.648Z,67.11
2022-12-13T13:04:57.361Z,67.18
2022-12-13T13:07:40.377Z,67.05
2022-12-13T13:10:16.760Z,67.89
2022-12-13T13:13:12.490Z,66.76
2022-12-13T13:15:40.688Z,67.61
2022-12-13T13:18:47.523Z,67.83
2022-12-13T13:21:24.004Z,67.95
2022-12-13T13:24:09.223Z,67.72
2022-12-13T13:26:48.335Z,67.05
2022-12-13T13:29:27.194Z,67.46
2022-12-13T13:32:29.534Z,68.09
2022-12-13T13:35:43.547Z,68.66
2022-12-13T13:38:17.004Z,67.52
2022-12-13T13:40:44.254Z,67.92
2022-12-13T13:43:11.789Z,66.38
2022-12-13T13:46:03.254Z,65.59
2022-12-13T13:49:04.535Z,63.77
2022-12-13T13:55:12.971Z,64.46
2022-12-13T13:58:11.117Z,63.50
2022-12-13T14:01:23.008Z,64.30
2022-12-13T14:04:09.075Z,65.71
2022-12-13T14:07:09.600Z,67.26
2022-12-13T14:10:23.675Z,68.55
2022-12-13T14:13:23.571Z,68.39
2022-12-13T14:16:41.663Z,68.89
2022-12-13T14:19:42.819Z,69.66
2022-12-13T14:22:50.177Z,70.91
2022-12-13T14:26:03.677Z,72.12
2022-12-13T14:28:52.026Z,71.45
2022-12-13T14:31:30.937Z,71.51
2022-12-13T14:34:01.580Z,72.55
2022-12-13T14:36:35.412Z,73.34
2022-12-13T14:39:16.323Z,73.28
2022-12-13T14:41:56.305Z,74.14
2022-12-13T14:44:34.495Z,72.73
2022-12-13T14:47:07.543Z,73.54
2022-12-13T14:49:41.764Z,74.41
2022-12-13T14:52:26.196Z,74.23
2022-12-13T14:55:04.777Z,74.83
2022-12-13T14:57:35.195Z,74.99
2022-12-13T15:00:28.734Z,74.82
2022-12-13T15:03:01.469Z,75.89
2022-12-13T15:05:44.305Z,75.73
2022-12-13T15:08:19.638Z,76.22
2022-12-13T15:10:52.176Z,76.38
2022-12-13T15:13:53.000Z,77.40
2022-12-13T15:16:28.633Z,77.53
2022-12-13T15:19:30.943Z,77.05
2022-12-13T15:22:13.144Z,77.11
2022-12-13T15:24:47.119Z,77.10
2022-12-13T15:27:17.467Z,76.82
2022-12-13T15:29:47.556Z,77.02
2022-12-13T15:32:19.289Z,77.80
2022-12-13T15:34:47.800Z,78.17
2022-12-13T15:37:29.136Z,77.86
2022-12-13T15:40:08.864Z,77.32
2022-12-13T15:42:43.704Z,77.08
2022-12-13T15:45:31.778Z,76.79
2022-12-13T15:48:05.558Z,77.16
2022-12-13T15:50:45.513Z,77.48
2022-12-13T15:53:28.040Z,76.67
2022-12-13T15:55:56.012Z,76.76
2022-12-13T15:58:33.698Z,76.78
2022-12-13T16:01:05.921Z,76.93
2022-12-13T16:03:44.724Z,77.21
2022-12-13T16:06:23.793Z,77.04
2022-12-13T16:08:57.028Z,76.73
2022-12-13T16:12:07.293Z,76.91
2022-12-13T16:14:48.900Z,77.07
2022-12-13T16:17:27.429Z,76.34
2022-12-13T16:20:02.115Z,76.60
2022-12-13T16:22:33.562Z,76.38
2022-12-13T16:25:00.752Z,76.88
2022-12-13T16:27:28.512Z,76.55
2022-12-13T16:29:55.953Z,77.31
2022-12-13T16:32:23.629Z,76.83
2022-12-13T16:34:50.940Z,76.69
2022-12-13T16:37:26.510Z,76.47
2022-12-13T16:39:55.371Z,76.71
2022-12-13T16:42:27.053Z,77.18
2022-12-13T16:45:40.564Z,76.92
2022-12-13T16:47:49.513Z,76.99
2022-12-13T16:50:21.577Z,76.55
2022-12-13T16:52:49.776Z,77.15
2022-12-13T16:55:17.367Z,76.34
2022-12-13T16:57:55.522Z,76.17
2022-12-13T17:00:23.102Z,75.56
2022-12-13T17:02:51.121Z,75.16
2022-12-13T17:05:18.820Z,74.26
2022-12-13T17:07:46.775Z,73.23
2022-12-13T17:10:14.804Z,72.11
2022-12-13T17:12:42.628Z,72.33
2022-12-13T17:15:11.821Z,72.52
2022-12-13T17:17:43.183Z,72.64
2022-12-13T17:20:17.287Z,72.72
2022-12-13T17:22:45.791Z,72.37
2022-12-13T17:25:14.338Z,71.77
2022-12-13T17:27:42.654Z,71.98
2022-12-13T17:30:15.895Z,72.01
2022-12-13T17:32:44.268Z,70.95
2022-12-13T17:35:17.918Z,70.84
2022-12-13T17:37:46.306Z,70.67
2022-12-13T17:40:13.678Z,71.25
2022-12-13T17:42:41.261Z,70.97
2022-12-13T17:45:09.001Z,71.62
2022-12-13T17:47:36.740Z,71.22
2022-12-13T17:50:04.383Z,71.12
2022-12-13T17:52:31.906Z,71.92
2022-12-13T17:55:01.006Z,72.11
2022-12-13T17:57:28.552Z,72.47
2022-12-13T17:59:55.781Z,72.27
2022-12-13T18:02:23.416Z,71.39
2022-12-13T18:04:50.869Z,71.85
2022-12-13T18:07:19.324Z,71.37
2022-12-13T18:09:46.601Z,72.00
2022-12-13T18:12:15.735Z,71.47
2022-12-13T18:14:43.703Z,71.99
2022-12-13T18:17:11.228Z,72.46
2022-12-13T18:19:38.407Z,72.16
2022-12-13T18:22:05.945Z,72.72
2022-12-13T18:24:33.152Z,72.79
2022-12-13T18:27:00.739Z,72.68
2022-12-13T18:29:28.012Z,73.48
2022-12-13T18:31:55.694Z,73.56
2022-12-13T18:34:22.946Z,74.45
2022-12-13T18:36:50.509Z,74.50
2022-12-13T18:39:18.085Z,74.81
2022-12-13T18:41:45.683Z,75.10
2022-12-13T18:44:13.646Z,75.11
2022-12-13T18:46:45.762Z,75.66
2022-12-13T18:49:13.493Z,75.80
2022-12-13T18:51:41.017Z,76.92
2022-12-13T18:54:08.288Z,77.45
2022-12-13T18:56:35.834Z,76.79
2022-12-13T18:59:03.113Z,76.88
2022-12-13T19:01:31.343Z,76.83
2022-12-13T19:03:58.772Z,76.99
2022-12-13T19:06:28.326Z,77.21
2022-12-13T19:08:58.150Z,77.27
2022-12-13T19:11:28.100Z,77.00
2022-12-13T19:13:55.595Z,77.02
2022-12-13T19:16:24.859Z,76.77
2022-12-13T19:18:52.611Z,77.47
2022-12-13T19:21:22.456Z,77.55
2022-12-13T19:23:57.042Z,77.63
2022-12-13T19:26:29.470Z,77.43
2022-12-13T19:28:59.055Z,77.28
2022-12-13T19:31:31.879Z,77.69
2022-12-13T19:34:03.693Z,77.64
2022-12-13T19:36:32.832Z,77.43
2022-12-13T19:39:01.089Z,77.75
2022-12-13T19:41:29.712Z,77.79
2022-12-13T19:43:57.077Z,78.04
2022-12-13T19:46:24.857Z,78.37
2022-12-13T19:48:52.413Z,78.36
2022-12-13T19:51:20.070Z,78.39
2022-12-13T19:53:47.467Z,78.63
2022-12-13T19:56:19.430Z,78.40
2022-12-13T19:58:49.221Z,78.69
2022-12-13T20:01:18.157Z,78.79
2022-12-13T20:03:46.782Z,79.24
2022-12-13T20:06:22.288Z,79.24
2022-12-13T20:08:50.937Z,79.68
2022-12-13T20:11:23.129Z,79.46
2022-12-13T20:13:55.032Z,79.54
2022-12-13T20:16:26.000Z,79.36
2022-12-13T20:18:59.160Z,79.30
2022-12-13T20:21:28.770Z,79.41
2022-12-13T20:23:57.872Z,79.84
2022-12-13T20:26:30.212Z,80.23
2022-12-13T20:28:58.022Z,80.35
2022-12-13T20:31:32.746Z,80.31
2022-12-13T20:34:04.715Z,80.03
2022-12-13T20:36:32.933Z,80.33
2022-12-13T20:39:02.594Z,80.13
2022-12-13T20:41:34.213Z,80.11
2022-12-13T20:44:04.508Z,80.01
2022-12-13T20:46:33.012Z,79.85
2022-12-13T20:49:04.095Z,79.78
2022-12-13T20:51:33.531Z,79.34
2022-12-13T20:54:01.095Z,78.89
2022-12-13T20:56:34.485Z,78.83
2022-12-13T20:59:04.509Z,78.45
2022-12-13T21:01:37.917Z,78.50
2022-12-13T21:04:07.825Z,78.16
2022-12-13T21:06:40.705Z,77.91
2022-12-13T21:09:10.895Z,77.96
2022-12-13T21:11:47.924Z,77.74
2022-12-13T21:14:21.194Z,77.58
2022-12-13T21:16:57.994Z,77.79
2022-12-13T21:19:39.070Z,78.13
2022-12-13T21:22:07.984Z,78.30
2022-12-13T21:24:35.309Z,79.24
2022-12-13T21:27:02.873Z,78.82
2022-12-13T21:29:30.063Z,79.28
2022-12-13T21:31:57.696Z,79.37
2022-12-13T21:34:25.095Z,79.68
2022-12-13T21:36:53.441Z,79.94
2022-12-13T21:39:24.838Z,80.37
2022-12-13T21:41:52.581Z,80.61
2022-12-13T21:44:20.596Z,80.67
2022-12-13T21:49:36.488Z,81.41
2022-12-13T21:52:04.198Z,81.79
2022-12-13T21:54:31.539Z,81.63
2022-12-13T21:57:17.739Z,81.35
2022-12-13T21:59:46.004Z,81.20
2022-12-13T22:02:18.492Z,81.96
2022-12-13T22:04:55.776Z,81.11
2022-12-13T22:07:32.795Z,80.02
2022-12-13T22:10:02.205Z,78.96
2022-12-13T22:12:39.718Z,78.12
2022-12-13T22:15:12.059Z,78.59
2022-12-13T22:17:41.271Z,79.32
2022-12-13T22:20:13.766Z,81.22
2022-12-13T22:22:44.233Z,81.52
2022-12-13T22:25:11.722Z,82.43
2022-12-13T22:27:39.345Z,82.48
2022-12-13T22:30:07.659Z,82.67
2022-12-13T22:32:35.324Z,82.93
2022-12-13T22:35:02.661Z,82.61
2022-12-13T22:37:30.396Z,82.96
2022-12-13T22:39:57.619Z,83.55
2022-12-13T22:42:25.209Z,83.12
2022-12-13T22:44:52.405Z,83.35
2022-12-13T22:47:19.853Z,83.79
2022-12-13T22:49:48.702Z,83.88
2022-12-13T22:52:17.332Z,84.43
2022-12-13T22:54:44.550Z,84.58
2022-12-13T22:57:12.146Z,85.44
2022-12-13T22:59:39.336Z,85.17
2022-12-13T23:02:07.774Z,85.19
2022-12-13T23:04:35.163Z,85.02
2022-12-13T23:07:02.678Z,84.25
2022-12-13T23:09:29.874Z,83.83
2022-12-13T23:12:16.139Z,83.68
2022-12-13T23:14:43.362Z,83.78
2022-12-13T23:17:10.907Z,83.38
2022-12-13T23:19:50.827Z,82.96
2022-12-13T23:22:23.799Z,82.62
2022-12-13T23:24:53.085Z,82.51
2022-12-13T23:27:24.854Z,82.33
2022-12-13T23:29:52.231Z,82.22
2022-12-13T23:32:19.804Z,81.81
2022-12-13T23:34:47.077Z,81.50
2022-12-13T23:37:14.593Z,81.37
2022-12-13T23:39:41.790Z,81.33
2022-12-13T23:42:09.699Z,80.87
2022-12-13T23:44:36.940Z,80.96
2022-12-13T23:47:04.661Z,80.95
2022-12-13T23:49:32.412Z,81.13
2022-12-13T23:51:59.867Z,81.33
2022-12-13T23:54:27.228Z,81.35
2022-12-13T23:56:54.771Z,80.96
2022-12-13T23:59:21.990Z,81.00
